Time;durP1;ratioP1;P1;durP2;ratioP2;P2;SDS_P1;SDS_P2;PMS_P1;PMS_P2;Temp;Humidity;BMP_temperature;BMP_pressure;BME280_temperature;BME280_humidity;BME280_pressure;Samples;Min_cycle;Max_cycle;Signal;HPM_P1;HPM_P2
2021/12/16 00:09:06;;;;;;;49.00;21.10;;;9.70;99.90;;;;;;4950606;28;37997;-77
2021/12/16 00:20:20;;;;;;;69.17;24.37;;;9.60;99.90;;;;;;4954222;28;49291;-77
2021/12/16 00:33:39;;;;;;;62.03;23.07;;;9.50;99.90;;;;;;4962216;28;39974;-78
2021/12/16 00:36:08;;;;;;;60.03;25.03;;;9.50;99.90;;;;;;4969026;28;38680;-77
2021/12/16 00:38:35;;;;;;;56.20;22.67;;;9.40;99.90;;;;;;4963654;28;39021;-77
2021/12/16 00:41:02;;;;;;;88.40;28.20;;;9.50;99.90;;;;;;4967686;28;38908;-77
2021/12/16 00:48:36;;;;;;;74.40;26.07;;;9.50;99.90;;;;;;4962719;28;40509;-78
2021/12/16 00:56:15;;;;;;;88.03;30.03;;;9.50;99.90;;;;;;4957612;28;39711;-78
2021/12/16 00:58:50;;;;;;;60.90;25.43;;;9.50;99.90;;;;;;4956218;28;39743;-78
2021/12/16 01:39:52;;;;;;;56.93;24.03;;;9.60;99.90;;;;;;4952861;28;39700;-78
2021/12/16 01:42:31;;;;;;;65.37;25.27;;;9.60;99.90;;;;;;4948513;28;48362;-77
2021/12/16 01:50:52;;;;;;;51.77;23.63;;;9.60;99.90;;;;;;4952915;28;39206;-78
2021/12/16 01:55:52;;;;;;;85.10;28.73;;;9.60;99.90;;;;;;4954418;28;38666;-77
2021/12/16 01:58:23;;;;;;;57.47;25.07;;;9.60;99.90;;;;;;4963138;28;37582;-77
2021/12/16 02:01:09;;;;;;;52.30;23.87;;;9.60;99.90;;;;;;4954012;28;38642;-77
2021/12/16 02:03:40;;;;;;;53.63;23.90;;;9.60;99.90;;;;;;4954517;28;46516;-77
2021/12/16 02:08:50;;;;;;;74.33;29.40;;;9.70;99.90;;;;;;4952230;28;39413;-77
2021/12/16 02:36:02;;;;;;;50.43;23.67;;;9.70;99.90;;;;;;4942655;28;48504;-77
2021/12/16 02:38:32;;;;;;;47.70;22.20;;;9.60;99.90;;;;;;4955737;28;47682;-77
2021/12/16 02:40:59;;;;;;;47.40;23.77;;;9.60;99.90;;;;;;4952343;28;38673;-77
2021/12/16 02:48:44;;;;;;;62.77;25.57;;;9.60;99.90;;;;;;4951591;28;49045;-77
2021/12/16 02:51:17;;;;;;;68.87;28.70;;;9.60;99.90;;;;;;4957523;28;39236;-78
2021/12/16 02:53:54;;;;;;;58.70;26.30;;;9.60;99.90;;;;;;4966613;28;37677;-78
2021/12/16 02:56:21;;;;;;;73.40;27.57;;;9.50;99.90;;;;;;4968956;28;37488;-77
2021/12/16 02:58:51;;;;;;;68.37;28.23;;;9.60;99.90;;;;;;4969838;28;37342;-76
2021/12/16 03:01:33;;;;;;;62.33;26.30;;;9.60;99.90;;;;;;4961309;28;41213;-76
2021/12/16 03:04:02;;;;;;;60.78;25.50;;;9.60;99.90;;;;;;4956567;28;38528;-77
2021/12/16 03:06:30;;;;;;;61.07;26.77;;;9.60;99.90;;;;;;4955338;28;47675;-78
2021/12/16 03:08:58;;;;;;;63.40;26.80;;;9.60;99.90;;;;;;4961208;28;37449;-79
2021/12/16 03:22:18;;;;;;;64.17;24.13;;;9.70;99.90;;;;;;4953750;28;37020;-77
2021/12/16 03:25:09;;;;;;;71.60;28.10;;;9.70;99.90;;;;;;4956456;28;38848;-77
2021/12/16 03:33:13;;;;;;;54.72;23.77;;;9.80;99.90;;;;;;4951540;28;49047;-77
2021/12/16 03:35:40;;;;;;;57.87;24.30;;;9.80;99.90;;;;;;4952145;28;38674;-77
2021/12/16 03:38:09;;;;;;;52.27;22.10;;;9.80;99.90;;;;;;4965443;28;39780;-77
2021/12/16 03:40:36;;;;;;;58.00;24.30;;;9.80;99.90;;;;;;4946895;28;37498;-78
2021/12/16 03:43:15;;;;;;;53.83;25.10;;;9.80;99.90;;;;;;4953334;28;38866;-76
2021/12/16 03:48:47;;;;;;;80.30;28.70;;;9.90;99.90;;;;;;4946561;28;49214;-77
2021/12/16 03:51:18;;;;;;;58.23;24.67;;;9.90;99.90;;;;;;4941392;28;36602;-78
2021/12/16 03:53:46;;;;;;;48.37;23.93;;;9.90;99.90;;;;;;4946679;28;38341;-77
2021/12/16 03:56:12;;;;;;;63.87;25.87;;;9.90;99.90;;;;;;4947294;28;39520;-78
2021/12/16 03:58:39;;;;;;;75.07;27.37;;;9.90;99.90;;;;;;4949445;28;37190;-78
2021/12/16 04:01:11;;;;;;;49.27;22.63;;;9.90;99.90;;;;;;4949950;28;37403;-77
2021/12/16 04:03:38;;;;;;;71.85;27.00;;;9.90;99.90;;;;;;4947022;28;39370;-77
2021/12/16 04:06:05;;;;;;;56.90;23.10;;;9.90;99.90;;;;;;4958797;28;38012;-77
2021/12/16 04:08:31;;;;;;;48.73;22.70;;;10.00;99.90;;;;;;4961980;28;38876;-77
2021/12/16 04:11:11;;;;;;;53.97;22.27;;;9.90;99.90;;;;;;4957694;28;40357;-77
2021/12/16 04:13:53;;;;;;;47.40;21.03;;;9.90;99.90;;;;;;4944932;28;48506;-77
2021/12/16 04:16:23;;;;;;;63.55;24.20;;;10.00;99.90;;;;;;4959809;28;37818;-77
2021/12/16 04:18:49;;;;;;;46.63;21.33;;;10.00;99.90;;;;;;4944456;28;39085;-77
2021/12/16 04:21:19;;;;;;;59.27;23.93;;;10.00;99.90;;;;;;4959233;28;37795;-77
2021/12/16 04:23:47;;;;;;;66.90;25.53;;;10.00;99.90;;;;;;4954843;28;38570;-76
2021/12/16 04:26:15;;;;;;;54.07;23.43;;;10.00;99.90;;;;;;4958828;28;38087;-77
2021/12/16 04:28:42;;;;;;;59.07;24.10;;;10.10;99.90;;;;;;4946225;28;38639;-77
2021/12/16 04:31:10;;;;;;;58.80;24.30;;;10.10;99.90;;;;;;4948266;28;38149;-77
2021/12/16 04:33:39;;;;;;;64.97;25.70;;;10.10;99.90;;;;;;4942337;28;38476;-78
2021/12/16 04:36:11;;;;;;;54.17;24.60;;;10.00;99.90;;;;;;4947050;28;38582;-77
2021/12/16 04:38:40;;;;;;;50.60;20.73;;;10.00;99.90;;;;;;4947034;28;39008;-77
2021/12/16 04:41:10;;;;;;;48.57;23.10;;;10.00;99.90;;;;;;4948143;28;37789;-77
2021/12/16 04:43:40;;;;;;;74.43;27.90;;;10.10;99.90;;;;;;4947212;28;38872;-77
2021/12/16 04:46:13;;;;;;;34.23;18.13;;;10.10;99.90;;;;;;4943377;28;38637;-77
2021/12/16 04:48:42;;;;;;;48.03;23.70;;;10.00;99.90;;;;;;4961724;28;37533;-77
2021/12/16 04:51:09;;;;;;;63.47;23.80;;;10.00;99.90;;;;;;4950986;28;39376;-77
2021/12/16 04:53:37;;;;;;;58.80;24.87;;;10.00;99.90;;;;;;4953135;28;39492;-77
2021/12/16 04:56:04;;;;;;;49.17;20.67;;;9.90;99.90;;;;;;4942142;28;38915;-77
2021/12/16 04:58:31;;;;;;;52.33;21.43;;;10.00;99.90;;;;;;4944626;28;39352;-77
2021/12/16 05:00:57;;;;;;;40.40;19.30;;;10.00;99.90;;;;;;4964424;28;38044;-77
2021/12/16 05:03:24;;;;;;;47.37;21.33;;;9.90;99.90;;;;;;4953516;28;38653;-77
2021/12/16 05:05:52;;;;;;;40.97;20.30;;;9.90;99.90;;;;;;4966917;28;39271;-77
2021/12/16 05:08:19;;;;;;;55.43;25.70;;;9.90;99.90;;;;;;4958512;28;38135;-77
2021/12/16 05:10:47;;;;;;;58.43;23.50;;;10.00;99.90;;;;;;4966851;28;38115;-77
2021/12/16 05:13:15;;;;;;;36.03;19.37;;;9.90;99.90;;;;;;4948771;28;37688;-77
2021/12/16 05:15:42;;;;;;;44.57;21.37;;;9.90;99.90;;;;;;4954782;28;37256;-77
2021/12/16 05:18:12;;;;;;;67.60;26.27;;;9.90;99.90;;;;;;4971271;28;39430;-77
2021/12/16 05:20:43;;;;;;;57.40;23.77;;;9.90;99.90;;;;;;4952651;28;37995;-77
2021/12/16 05:28:38;;;;;;;43.03;22.03;;;9.80;99.90;;;;;;4952820;28;48737;-78
2021/12/16 05:31:04;;;;;;;54.90;24.40;;;9.80;99.90;;;;;;4952978;28;37850;-77
2021/12/16 05:33:31;;;;;;;46.13;19.63;;;9.80;99.90;;;;;;4964578;28;37069;-77
2021/12/16 05:35:58;;;;;;;62.60;25.60;;;9.80;99.90;;;;;;4956700;28;38425;-77
2021/12/16 05:38:26;;;;;;;57.30;24.63;;;9.90;99.90;;;;;;4968964;28;39542;-77
2021/12/16 05:40:53;;;;;;;47.57;21.17;;;9.90;99.90;;;;;;4964711;28;37641;-77
2021/12/16 05:43:23;;;;;;;32.23;17.13;;;9.80;99.90;;;;;;4959937;28;38946;-77
2021/12/16 05:45:51;;;;;;;36.13;18.43;;;9.80;99.90;;;;;;4979431;28;38254;-77
2021/12/16 05:48:22;;;;;;;40.80;20.33;;;9.80;99.90;;;;;;4967703;28;38749;-77
2021/12/16 05:50:56;;;;;;;47.43;22.63;;;9.90;99.90;;;;;;4960983;28;39627;-77
2021/12/16 05:53:23;;;;;;;64.60;24.27;;;9.80;99.90;;;;;;4968252;28;39227;-76
2021/12/16 05:55:50;;;;;;;43.90;21.33;;;9.80;99.90;;;;;;4973586;28;40112;-77
2021/12/16 05:58:19;;;;;;;39.60;20.60;;;9.80;99.90;;;;;;4974576;28;40280;-77
2021/12/16 06:00:52;;;;;;;43.57;21.10;;;9.80;99.90;;;;;;4966482;28;38230;-77
2021/12/16 06:03:19;;;;;;;62.80;26.77;;;9.80;99.90;;;;;;4962252;28;39068;-77
2021/12/16 06:05:45;;;;;;;53.03;22.23;;;9.80;99.90;;;;;;4964577;28;38833;-77
2021/12/16 06:08:11;;;;;;;53.60;23.30;;;9.80;99.90;;;;;;4978212;28;38143;-77
2021/12/16 06:13:10;;;;;;;55.25;22.83;;;9.90;99.90;;;;;;4958324;28;39012;-77
2021/12/16 06:15:56;;;;;;;58.23;23.60;;;9.90;99.90;;;;;;4957478;28;41937;-77
2021/12/16 06:27:25;;;;;;;35.27;19.80;;;9.80;99.90;;;;;;4952208;28;49748;-78
2021/12/16 06:29:24;;;;;;;56.60;22.40;;;9.80;99.90;;;;;;4960523;28;39066;-77
2021/12/16 06:31:51;;;;;;;42.50;19.97;;;9.80;99.90;;;;;;4971235;28;39023;-77
2021/12/16 06:34:17;;;;;;;54.93;24.37;;;9.80;99.90;;;;;;4988312;28;39778;-77
2021/12/16 06:36:44;;;;;;;71.10;28.53;;;9.70;99.90;;;;;;4959267;28;39817;-77
2021/12/16 06:39:10;;;;;;;49.87;25.00;;;9.70;99.90;;;;;;4965002;28;40226;-78
2021/12/16 06:41:37;;;;;;;40.00;22.57;;;9.60;99.90;;;;;;4958326;28;38455;-77
2021/12/16 06:44:13;;;;;;;52.03;26.57;;;9.60;99.90;;;;;;4959616;28;38670;-77
2021/12/16 06:46:42;;;;;;;55.10;27.67;;;9.50;99.90;;;;;;4964227;28;39828;-78
2021/12/16 06:49:11;;;;;;;74.23;30.73;;;9.50;99.90;;;;;;4967739;28;39917;-77
2021/12/16 06:51:46;;;;;;;43.07;23.53;;;9.50;99.90;;;;;;4959948;28;38266;-77
2021/12/16 06:54:21;;;;;;;44.97;24.33;;;9.50;99.90;;;;;;4955949;28;38391;-78
2021/12/16 06:57:02;;;;;;;59.57;26.80;;;9.50;99.90;;;;;;4953053;28;40546;-77
2021/12/16 06:59:34;;;;;;;50.37;25.70;;;9.50;99.90;;;;;;4955991;28;48106;-77
2021/12/16 07:04:31;;;;;;;52.53;22.37;;;9.50;99.90;;;;;;4953833;28;48669;-77
2021/12/16 07:06:58;;;;;;;63.00;30.17;;;9.40;99.90;;;;;;4969767;28;38166;-77
2021/12/16 07:09:24;;;;;;;61.80;32.10;;;9.40;99.90;;;;;;4966472;28;38765;-77
2021/12/16 07:11:56;;;;;;;55.90;32.00;;;9.40;99.90;;;;;;4954127;28;37063;-78
2021/12/16 07:14:34;;;;;;;83.53;37.45;;;9.40;99.90;;;;;;4967305;28;40293;-78
2021/12/16 07:17:02;;;;;;;64.47;32.47;;;9.50;99.90;;;;;;4968502;28;39077;-77
2021/12/16 07:19:28;;;;;;;85.40;34.17;;;9.50;99.90;;;;;;4953941;28;47529;-78
2021/12/16 07:21:54;;;;;;;40.10;22.63;;;9.50;99.90;;;;;;4950291;28;38273;-79
2021/12/16 07:24:20;;;;;;;49.07;25.63;;;9.40;99.90;;;;;;4952417;28;37553;-79
2021/12/16 07:26:48;;;;;;;59.03;29.53;;;9.50;99.90;;;;;;4966955;28;38191;-78
2021/12/16 07:29:14;;;;;;;29.70;19.53;;;9.50;99.90;;;;;;4953448;28;37766;-78
2021/12/16 07:31:41;;;;;;;52.30;24.70;;;9.50;99.90;;;;;;4954261;28;38954;-78
2021/12/16 07:34:12;;;;;;;45.67;23.03;;;9.40;99.90;;;;;;4950402;28;39377;-78
2021/12/16 07:36:41;;;;;;;53.17;25.53;;;9.50;99.90;;;;;;4957023;28;37639;-78
2021/12/16 07:39:11;;;;;;;63.33;30.17;;;9.60;99.90;;;;;;4952850;28;40887;-79
2021/12/16 07:41:39;;;;;;;65.40;29.60;;;9.60;99.90;;;;;;4953819;28;38408;-78
2021/12/16 07:44:11;;;;;;;46.20;24.03;;;9.60;99.90;;;;;;4956523;28;39745;-78
2021/12/16 07:46:46;;;;;;;49.00;25.23;;;9.50;99.90;;;;;;4953716;28;39088;-77
2021/12/16 07:49:17;;;;;;;51.00;26.00;;;9.40;99.90;;;;;;4960459;28;39248;-78
2021/12/16 07:51:44;;;;;;;61.67;29.53;;;9.40;99.90;;;;;;4959070;28;37319;-78
2021/12/16 07:54:13;;;;;;;56.60;29.47;;;9.30;99.90;;;;;;4960324;28;39028;-78
2021/12/16 07:56:40;;;;;;;52.67;26.83;;;9.30;99.90;;;;;;4957536;28;39805;-77
2021/12/16 07:59:08;;;;;;;40.90;22.93;;;9.20;99.90;;;;;;4958667;28;40124;-77
2021/12/16 08:01:39;;;;;;;62.27;27.67;;;9.20;99.90;;;;;;4964236;28;37769;-77
2021/12/16 08:04:06;;;;;;;63.40;27.53;;;9.20;99.90;;;;;;4946916;28;37758;-77
2021/12/16 08:06:33;;;;;;;50.77;26.10;;;9.10;99.90;;;;;;4949274;28;39516;-78
2021/12/16 08:09:04;;;;;;;38.77;21.23;;;9.00;99.90;;;;;;4948660;28;39267;-77
2021/12/16 08:11:34;;;;;;;35.53;21.80;;;8.90;99.90;;;;;;4950007;28;46671;-77
2021/12/16 08:14:03;;;;;;;38.97;22.30;;;8.80;99.90;;;;;;4952560;28;37249;-78
2021/12/16 08:16:34;;;;;;;32.43;19.57;;;8.70;99.90;;;;;;4944581;28;47168;-77
2021/12/16 08:19:04;;;;;;;37.90;20.20;;;8.70;99.90;;;;;;4959950;28;37517;-77
2021/12/16 08:21:31;;;;;;;28.87;17.73;;;8.80;99.90;;;;;;4950985;28;47597;-78
2021/12/16 08:24:02;;;;;;;55.47;25.87;;;8.90;99.90;;;;;;4951710;28;41039;-78
2021/12/16 08:26:30;;;;;;;42.03;23.10;;;8.80;99.90;;;;;;4949676;28;48669;-77
2021/12/16 08:29:00;;;;;;;51.00;23.90;;;8.70;99.90;;;;;;4947892;28;37240;-76
2021/12/16 08:31:27;;;;;;;43.40;23.13;;;8.60;99.90;;;;;;4943242;28;37230;-77
2021/12/16 08:33:54;;;;;;;72.67;29.50;;;8.70;99.90;;;;;;4949938;28;38471;-78
2021/12/16 08:36:20;;;;;;;52.90;24.47;;;8.60;99.90;;;;;;4943488;28;42054;-77
2021/12/16 08:38:49;;;;;;;37.50;21.50;;;8.40;99.90;;;;;;4953366;28;39936;-77
2021/12/16 08:41:22;;;;;;;43.67;22.90;;;8.40;99.90;;;;;;4972382;28;37287;-77
2021/12/16 08:43:49;;;;;;;40.07;21.70;;;8.30;99.90;;;;;;4979233;28;38660;-78
2021/12/16 08:46:20;;;;;;;36.17;20.90;;;8.30;99.90;;;;;;4943108;28;39019;-77
2021/12/16 08:48:49;;;;;;;53.23;26.17;;;8.30;99.90;;;;;;4971338;28;38358;-76
2021/12/16 08:51:23;;;;;;;47.60;23.80;;;8.30;99.90;;;;;;4954362;28;37726;-76
2021/12/16 08:53:53;;;;;;;39.03;21.40;;;8.40;99.90;;;;;;4958511;28;39537;-76
2021/12/16 08:56:20;;;;;;;44.47;24.03;;;8.40;99.90;;;;;;4961412;28;38489;-77
2021/12/16 08:58:47;;;;;;;38.20;20.53;;;8.30;99.90;;;;;;4954783;28;38908;-77
2021/12/16 09:01:23;;;;;;;53.80;26.80;;;8.30;99.90;;;;;;4965515;28;36109;-76
2021/12/16 09:03:51;;;;;;;58.37;26.03;;;8.40;99.90;;;;;;4967309;28;37911;-77
2021/12/16 09:06:20;;;;;;;44.13;22.37;;;8.30;99.90;;;;;;4951047;28;37708;-75
2021/12/16 09:08:47;;;;;;;45.50;24.40;;;8.40;99.90;;;;;;4947445;28;37216;-76
2021/12/16 09:11:20;;;;;;;57.83;26.73;;;8.70;99.90;;;;;;4959334;28;36586;-77
2021/12/16 09:13:49;;;;;;;38.43;22.47;;;8.60;99.90;;;;;;4953066;28;37886;-77
2021/12/16 09:16:21;;;;;;;40.73;22.60;;;8.60;99.90;;;;;;4953750;28;38938;-78
2021/12/16 09:18:48;;;;;;;43.10;25.53;;;8.80;99.90;;;;;;4964351;28;37642;-78
2021/12/16 09:21:24;;;;;;;57.17;27.13;;;9.00;99.90;;;;;;4962278;28;36147;-77
2021/12/16 09:23:52;;;;;;;50.70;25.57;;;8.90;99.90;;;;;;4956016;28;37887;-77
2021/12/16 09:26:19;;;;;;;45.77;24.03;;;8.90;99.90;;;;;;4950744;28;39431;-77
2021/12/16 09:28:46;;;;;;;34.80;21.47;;;9.00;99.90;;;;;;4957786;28;37811;-77
2021/12/16 09:31:16;;;;;;;46.80;25.43;;;9.20;99.90;;;;;;4958602;28;36301;-77
2021/12/16 09:33:50;;;;;;;42.33;23.93;;;9.10;99.90;;;;;;4951426;28;38865;-77
2021/12/16 09:36:26;;;;;;;36.20;22.33;;;9.10;99.90;;;;;;4952263;28;38007;-77
2021/12/16 09:38:53;;;;;;;50.27;25.50;;;9.20;99.90;;;;;;4950219;28;38559;-77
2021/12/16 09:41:19;;;;;;;50.63;25.20;;;9.30;99.90;;;;;;4949511;28;37917;-77
2021/12/16 09:43:48;;;;;;;47.20;27.13;;;9.30;99.90;;;;;;4952311;28;38126;-77
2021/12/16 09:46:18;;;;;;;53.90;26.00;;;9.40;99.90;;;;;;4954473;28;39140;-76
2021/12/16 09:48:45;;;;;;;40.43;24.07;;;9.50;99.90;;;;;;4955342;28;39610;-77
2021/12/16 09:51:16;;;;;;;50.60;26.83;;;9.60;99.90;;;;;;4959154;28;37079;-77
2021/12/16 09:53:43;;;;;;;44.37;25.60;;;9.60;99.90;;;;;;4953656;28;38655;-76
2021/12/16 09:56:11;;;;;;;42.40;23.93;;;9.80;99.90;;;;;;4954007;28;38688;-77
2021/12/16 09:58:45;;;;;;;40.93;23.17;;;10.00;99.90;;;;;;4960315;28;38683;-77
2021/12/16 10:01:13;;;;;;;60.77;28.63;;;10.00;99.90;;;;;;4966555;28;37799;-77
2021/12/16 10:03:42;;;;;;;47.60;27.50;;;10.10;99.90;;;;;;4958919;28;39638;-77
2021/12/16 10:06:08;;;;;;;55.97;28.97;;;10.10;99.90;;;;;;4954381;28;38973;-78
2021/12/16 10:08:36;;;;;;;40.63;23.47;;;10.10;99.90;;;;;;4959314;28;38983;-78
2021/12/16 10:11:04;;;;;;;49.10;26.47;;;10.20;99.90;;;;;;4953269;28;41100;-78
2021/12/16 10:13:41;;;;;;;45.20;25.37;;;10.30;99.90;;;;;;4959972;28;38631;-78
2021/12/16 10:18:35;;;;;;;36.90;22.10;;;10.30;99.90;;;;;;4962802;28;39106;-78
2021/12/16 10:21:07;;;;;;;36.73;23.97;;;10.30;99.90;;;;;;4956411;28;37653;-78
2021/12/16 10:23:40;;;;;;;37.83;22.88;;;10.50;99.90;;;;;;4956331;28;39775;-77
2021/12/16 10:26:08;;;;;;;;;;;10.60;99.90;;;;;;4959180;28;39801;-77
2021/12/16 10:28:38;;;;;;;51.13;26.13;;;10.70;99.90;;;;;;4971344;28;37192;-76
2021/12/16 10:31:09;;;;;;;45.67;23.27;;;10.70;99.90;;;;;;4961050;28;37211;-77
2021/12/16 10:33:37;;;;;;;33.63;20.57;;;10.60;99.90;;;;;;4957452;28;38699;-77
2021/12/16 10:36:13;;;;;;;39.90;23.27;;;10.70;99.90;;;;;;4954673;28;37877;-77
2021/12/16 10:38:53;;;;;;;38.83;23.13;;;10.80;99.90;;;;;;4953101;28;39637;-77
2021/12/16 10:41:30;;;;;;;38.83;22.10;;;10.90;99.90;;;;;;4959307;28;36731;-77
2021/12/16 10:44:08;;;;;;;36.90;22.53;;;11.00;99.90;;;;;;4964449;28;37752;-77
2021/12/16 10:46:45;;;;;;;35.70;22.33;;;11.00;99.90;;;;;;4962740;28;47379;-77
2021/12/16 10:49:15;;;;;;;46.70;23.30;;;11.10;99.90;;;;;;4978279;28;37147;-77
2021/12/16 10:51:47;;;;;;;36.17;21.27;;;11.20;99.90;;;;;;4960994;28;39025;-77
2021/12/16 10:54:23;;;;;;;33.57;19.33;;;11.20;99.90;;;;;;4957987;28;38686;-78
2021/12/16 10:56:49;;;;;;;37.47;19.67;;;11.20;99.90;;;;;;4950028;28;40169;-77
2021/12/16 10:59:36;;;;;;;29.97;17.53;;;11.20;99.90;;;;;;4956161;28;39147;-77
2021/12/16 11:02:08;;;;;;;37.23;19.90;;;11.30;99.90;;;;;;4958456;28;37566;-78
2021/12/16 11:05:05;;;;;;;30.80;16.33;;;11.30;99.90;;;;;;4962414;28;39772;-77
2021/12/16 11:07:40;;;;;;;26.63;17.27;;;11.40;99.90;;;;;;4952534;28;47414;-77
2021/12/16 11:10:10;;;;;;;32.53;18.30;;;11.40;99.90;;;;;;4958182;28;38637;-76
2021/12/16 11:12:43;;;;;;;25.13;15.23;;;11.50;99.90;;;;;;4955628;28;38226;-78
2021/12/16 11:15:24;;;;;;;26.37;14.63;;;11.50;99.90;;;;;;4954387;28;38871;-77
2021/12/16 11:17:55;;;;;;;25.43;16.57;;;11.60;99.90;;;;;;4971746;28;40160;-77
2021/12/16 11:20:42;;;;;;;24.57;15.03;;;11.70;99.90;;;;;;4949572;28;39214;-77
2021/12/16 11:23:08;;;;;;;23.70;14.00;;;11.80;99.90;;;;;;4955474;28;36325;-77
2021/12/16 11:25:56;;;;;;;26.30;14.90;;;11.70;99.90;;;;;;4960389;28;39467;-77
2021/12/16 11:28:35;;;;;;;22.53;14.53;;;11.80;99.90;;;;;;4961230;28;38982;-77
2021/12/16 11:31:13;;;;;;;25.77;13.53;;;11.90;99.90;;;;;;4954238;28;40095;-77
2021/12/16 11:33:42;;;;;;;26.33;15.20;;;12.00;99.90;;;;;;4971902;28;48209;-77
2021/12/16 11:36:21;;;;;;;24.43;15.33;;;12.00;99.90;;;;;;4952841;28;40482;-77
2021/12/16 11:38:54;;;;;;;28.70;14.43;;;12.00;99.90;;;;;;4949255;28;39017;-77
2021/12/16 11:41:31;;;;;;;26.37;14.37;;;12.10;99.90;;;;;;4969807;28;40439;-77
2021/12/16 11:44:06;;;;;;;20.67;13.37;;;12.20;99.90;;;;;;4966705;28;39612;-77
2021/12/16 11:46:49;;;;;;;30.60;15.00;;;12.30;99.90;;;;;;4960181;28;49643;-80
2021/12/16 11:49:24;;;;;;;19.93;13.30;;;12.40;99.90;;;;;;4960340;28;39905;-78
2021/12/16 11:52:10;;;;;;;23.83;13.57;;;12.40;99.90;;;;;;4949376;28;38074;-77
2021/12/16 11:54:38;;;;;;;22.63;13.10;;;12.50;99.90;;;;;;4954440;28;46946;-77
2021/12/16 11:57:13;;;;;;;22.08;13.85;;;12.50;99.90;;;;;;4951292;28;39558;-77
2021/12/16 11:59:44;;;;;;;21.63;12.53;;;12.60;99.90;;;;;;4956319;28;37674;-78
2021/12/16 12:02:37;;;;;;;27.90;11.73;;;12.60;99.90;;;;;;4962555;28;39309;-78
2021/12/16 12:05:44;;;;;;;19.38;11.88;;;12.70;99.90;;;;;;4961717;28;37339;-78
2021/12/16 12:08:23;;;;;;;19.73;11.93;;;12.80;99.90;;;;;;4963863;28;47044;-78
2021/12/16 12:10:59;;;;;;;21.77;12.70;;;12.90;99.90;;;;;;4957340;28;39479;-78
2021/12/16 12:13:34;;;;;;;21.57;11.33;;;12.90;99.90;;;;;;4965628;28;39562;-77
2021/12/16 12:16:05;;;;;;;22.70;11.53;;;12.80;99.90;;;;;;4958247;28;37291;-78
2021/12/16 12:18:31;;;;;;;21.30;9.50;;;12.90;99.90;;;;;;4955995;28;47207;-78
2021/12/16 12:21:20;;;;;;;18.83;9.03;;;12.90;99.90;;;;;;4965773;28;39614;-76
2021/12/16 12:23:51;;;;;;;19.33;7.90;;;13.00;99.90;;;;;;4971163;28;47153;-77
2021/12/16 12:26:19;;;;;;;15.10;8.83;;;13.00;99.90;;;;;;4971835;28;37597;-77
2021/12/16 12:28:53;;;;;;;25.87;11.23;;;12.90;99.90;;;;;;4950202;28;39812;-77
2021/12/16 12:31:22;;;;;;;20.00;10.15;;;12.90;99.90;;;;;;4951248;28;40320;-77
2021/12/16 12:33:48;;;;;;;22.60;8.47;;;12.90;99.90;;;;;;4958468;28;37861;-77
2021/12/16 12:36:16;;;;;;;20.37;9.70;;;12.80;99.90;;;;;;4956442;28;37552;-76
2021/12/16 12:38:43;;;;;;;16.93;11.77;;;12.90;99.90;;;;;;4950337;28;39039;-77
2021/12/16 12:41:10;;;;;;;21.17;10.67;;;12.90;99.90;;;;;;4956657;28;39725;-77
2021/12/16 12:43:37;;;;;;;21.23;10.00;;;12.80;99.90;;;;;;4972359;28;40157;-76
2021/12/16 12:46:06;;;;;;;26.07;11.67;;;12.90;99.90;;;;;;4961818;28;39533;-78
2021/12/16 12:48:34;;;;;;;19.37;9.83;;;12.80;99.90;;;;;;4962261;28;39395;-77
2021/12/16 12:51:01;;;;;;;14.10;9.30;;;12.80;99.90;;;;;;4957359;28;39949;-77
2021/12/16 12:53:32;;;;;;;18.20;9.47;;;12.90;99.90;;;;;;4961137;28;47199;-78
2021/12/16 12:56:12;;;;;;;21.00;8.37;;;12.90;99.90;;;;;;4970846;28;37539;-77
2021/12/16 12:59:04;;;;;;;25.90;8.87;;;12.90;99.90;;;;;;4952155;28;48853;-78
2021/12/16 13:01:43;;;;;;;17.07;8.53;;;12.90;99.90;;;;;;4952728;28;47056;-77
2021/12/16 13:04:32;;;;;;;13.20;8.00;;;12.90;99.90;;;;;;4955998;28;38274;-78
2021/12/16 13:07:10;;;;;;;19.50;7.30;;;13.00;99.90;;;;;;4960048;28;37660;-77
2021/12/16 13:09:39;;;;;;;17.00;7.27;;;13.00;99.90;;;;;;4957991;28;47003;-78
2021/12/16 13:12:35;;;;;;;14.97;5.47;;;12.90;99.90;;;;;;4955062;28;39451;-76
2021/12/16 13:15:13;;;;;;;11.10;5.63;;;12.90;99.90;;;;;;4971395;28;37531;-77
2021/12/16 13:26:43;;;;;;;15.50;4.63;;;12.90;99.90;;;;;;4963343;28;38785;-78
2021/12/16 13:29:39;;;;;;;14.70;4.67;;;12.90;99.90;;;;;;4963334;28;37847;-78
2021/12/16 13:32:17;;;;;;;13.53;5.00;;;12.90;99.90;;;;;;4976124;28;36691;-77
2021/12/16 13:34:57;;;;;;;11.13;4.90;;;13.00;99.90;;;;;;4952356;28;37720;-78
2021/12/16 13:37:36;;;;;;;12.23;5.43;;;13.00;99.90;;;;;;4981011;28;38526;-77
2021/12/16 13:40:14;;;;;;;10.97;5.00;;;13.00;99.90;;;;;;4956201;28;38539;-77
2021/12/16 13:42:59;;;;;;;12.47;4.37;;;12.90;99.90;;;;;;4965743;28;48491;-77
2021/12/16 13:45:44;;;;;;;15.70;4.83;;;12.90;99.90;;;;;;4969099;28;39595;-77
2021/12/16 13:48:57;;;;;;;10.37;4.20;;;12.80;99.90;;;;;;4981127;28;38744;-76
2021/12/16 14:03:29;;;;;;;11.77;4.50;;;12.80;99.90;;;;;;4958375;28;37746;-77
2021/12/16 14:08:40;;;;;;;13.13;4.90;;;12.80;99.90;;;;;;4955296;28;50099;-78
2021/12/16 14:12:50;;;;;;;10.95;4.03;;;12.80;99.90;;;;;;4964689;28;37674;-77
2021/12/16 14:15:08;;;;;;;9.27;3.77;;;12.80;99.90;;;;;;4960977;28;36521;-78
2021/12/16 14:17:49;;;;;;;12.37;3.93;;;12.70;99.90;;;;;;4961818;28;47620;-77
2021/12/16 14:23:47;;;;;;;9.57;4.53;;;12.60;99.90;;;;;;4957103;28;49069;-77
2021/12/16 14:42:14;;;;;;;12.77;5.07;;;12.20;99.90;;;;;;4951578;28;39070;-77
2021/12/16 14:50:08;;;;;;;14.77;6.10;;;12.10;99.90;;;;;;4960783;28;39079;-77
2021/12/16 14:52:36;;;;;;;13.47;5.83;;;12.00;99.90;;;;;;4966956;28;38746;-77
2021/12/16 14:55:11;;;;;;;14.53;5.30;;;12.00;99.90;;;;;;4960430;28;38521;-77
2021/12/16 14:57:43;;;;;;;12.23;6.27;;;11.90;99.90;;;;;;4970310;28;47293;-78
2021/12/16 15:00:15;;;;;;;11.77;6.10;;;11.80;99.90;;;;;;4964222;28;38881;-77
2021/12/16 15:02:44;;;;;;;13.88;7.05;;;11.70;99.90;;;;;;4970775;28;39211;-77
2021/12/16 15:05:31;;;;;;;14.57;6.60;;;11.70;99.90;;;;;;4951788;28;39123;-78
2021/12/16 15:08:24;;;;;;;14.33;7.20;;;11.60;99.90;;;;;;4993806;28;37854;-80
2021/12/16 15:11:03;;;;;;;14.63;7.32;;;11.60;99.90;;;;;;4984652;28;47966;-81
2021/12/16 15:13:41;;;;;;;16.77;6.83;;;11.50;99.90;;;;;;4985924;28;50218;-82
2021/12/16 15:44:24;;;;;;;17.80;10.00;;;10.60;99.90;;;;;;4977082;28;39833;-81
2021/12/16 15:46:51;;;;;;;18.17;9.93;;;10.40;99.90;;;;;;4982540;28;38322;-81
2021/12/16 15:49:18;;;;;;;16.17;8.60;;;10.30;99.90;;;;;;4976456;28;38615;-81
2021/12/16 15:51:50;;;;;;;22.50;10.47;;;10.20;99.90;;;;;;4956412;28;36659;-80
2021/12/16 15:54:18;;;;;;;26.35;11.35;;;10.20;99.90;;;;;;4969299;28;38752;-81
2021/12/16 15:56:47;;;;;;;22.53;10.77;;;10.10;99.90;;;;;;4970973;28;38380;-80
2021/12/16 15:59:16;;;;;;;23.07;11.73;;;10.00;99.90;;;;;;4992574;28;37422;-79
2021/12/16 16:01:51;;;;;;;26.73;10.80;;;9.90;99.90;;;;;;4973785;28;36456;-81
2021/12/16 16:04:20;;;;;;;20.57;12.03;;;9.90;99.90;;;;;;4970168;28;39172;-80
2021/12/16 16:06:57;;;;;;;22.03;11.17;;;9.80;99.90;;;;;;4976167;28;38831;-82
2021/12/16 16:09:25;;;;;;;22.13;12.00;;;9.80;99.90;;;;;;4961456;28;38659;-81
2021/12/16 16:11:54;;;;;;;19.77;12.07;;;9.80;99.90;;;;;;4975734;28;36410;-80
2021/12/16 16:14:22;;;;;;;24.30;14.63;;;9.70;99.90;;;;;;4975587;28;38040;-81
2021/12/16 16:16:53;;;;;;;22.63;13.90;;;9.60;99.90;;;;;;4956703;28;39741;-80
2021/12/16 16:19:26;;;;;;;27.07;13.17;;;9.60;99.90;;;;;;4961006;28;38444;-79
2021/12/16 16:21:56;;;;;;;23.70;14.03;;;9.50;99.90;;;;;;4960660;28;36256;-80
2021/12/16 16:24:29;;;;;;;23.30;12.57;;;9.50;99.90;;;;;;4961571;28;39303;-79
2021/12/16 16:26:58;;;;;;;25.43;12.37;;;9.40;99.90;;;;;;4965218;28;37765;-78
2021/12/16 16:29:28;;;;;;;23.13;12.80;;;9.50;99.90;;;;;;4962967;28;39575;-79
2021/12/16 16:31:55;;;;;;;22.33;11.63;;;9.60;99.90;;;;;;4963806;28;35735;-79
2021/12/16 16:34:26;;;;;;;25.77;13.77;;;9.70;99.90;;;;;;4964459;28;38793;-79
2021/12/16 16:36:57;;;;;;;26.60;13.67;;;9.70;99.90;;;;;;4959221;28;38632;-79
2021/12/16 16:39:29;;;;;;;24.43;13.47;;;9.60;99.90;;;;;;4967618;28;37454;-79
2021/12/16 16:42:00;;;;;;;26.90;14.13;;;9.40;99.90;;;;;;4978960;28;37064;-79
2021/12/16 16:44:28;;;;;;;30.20;14.40;;;9.20;99.90;;;;;;4963409;28;41699;-79
2021/12/16 16:47:01;;;;;;;21.10;13.23;;;9.10;99.90;;;;;;4984989;28;37738;-78
2021/12/16 16:49:45;;;;;;;26.40;16.47;;;9.00;99.90;;;;;;4967390;28;47256;-78
2021/12/16 16:52:14;;;;;;;25.47;14.67;;;9.00;99.90;;;;;;4964651;28;38900;-78
2021/12/16 16:54:45;;;;;;;29.57;18.00;;;8.90;99.90;;;;;;4960020;28;38474;-78